CYKZ

Buttonville Municipal Airport

Toronto, Ontario, Canada
METAR CYKZ 261300Z VRB02KT 15SM FEW050TCU BKN180 BKN230 22/15 A2979 RMK TCU1AS6CC1 TCU TR SLP086 DENSITY ALT 1800FT
Observed Flight Rules
May-26 @ 13:00 UTC (55 minutes ago) Visual Flight Rules
Wind Visibility Clouds
Variable at 2 knots 15 miles
  • Few at 5,000' AGL
  • Broken at 18,000' AGL
  • Broken at 23,000' AGL
Temperatures Readings
Current 22°C / 72°F
Dewpoint 15°C / 59°F
Humidity 65%
Altimeter 29.79" Hg
Pressure 1008.6 hPa
Elevation 198
METAR CYKZ 261300Z VRB02KT 15SM FEW050TCU BKN180 BKN230 22/15 A2979 RMK TCU1AS6CC1 TCU TR SLP086 DENSITY ALT 1800FT
Observed Flight Rules
May-26 @ 13:00 UTC
(55 minutes ago)
VFR
Wind Visibility
Variable at 2 knots 15 miles
Clouds
  • Few at 5,000' AGL
  • Broken at 18,000' AGL
  • Broken at 23,000' AGL
Temperature Dewpoint
22°C / 72°F 15°C / 59°F
Humidity Altimeter Pressure
65% 29.79" Hg 1008.6 hPa